<?xml version="1.0" encoding="UTF-8"?>
<gpx xmlns="http://www.topografix.com/GPX/1/1" xmlns:xsi="http://www.w3.org/2001/XMLSchema-instance" version="1.1" xsi:schemaLocation="http://www.topografix.com/GPX/1/1 http://www.topografix.com/GPX/1/1/gpx.xsd">
  <metadata>
    <name>Riverfront Tri 2022</name>
  </metadata>
  <trk>
    <name>Riverfront Tri 2022</name>
    <trkseg>
      <trkpt lat="28.354915" lon="-80.724714">
        <ele>1.658925</ele>
        <time>2023-11-05T07:01:00.000Z</time>
      </trkpt>
      <trkpt lat="28.35492" lon="-80.724925">
        <ele>1.658912</ele>
        <time>2023-11-05T07:01:02.000Z</time>
      </trkpt>
      <trkpt lat="28.35494" lon="-80.725149">
        <ele>1.658921</ele>
        <time>2023-11-05T07:01:04.000Z</time>
      </trkpt>
      <trkpt lat="28.354963" lon="-80.725305">
        <ele>1.658923</ele>
        <time>2023-11-05T07:01:06.000Z</time>
      </trkpt>
      <trkpt lat="28.354963" lon="-80.725367">
        <ele>1.658924</ele>
        <time>2023-11-05T07:01:07.000Z</time>
      </trkpt>
      <trkpt lat="28.354972" lon="-80.725438">
        <ele>1.658926</ele>
        <time>2023-11-05T07:01:08.000Z</time>
      </trkpt>
      <trkpt lat="28.354977" lon="-80.725518">
        <ele>1.658919</ele>
        <time>2023-11-05T07:01:09.000Z</time>
      </trkpt>
      <trkpt lat="28.354939" lon="-80.726228">
        <ele>1.686457</ele>
        <time>2023-11-05T07:01:16.000Z</time>
      </trkpt>
      <trkpt lat="28.354934" lon="-80.726225">
        <ele>1.68646</ele>
        <time>2023-11-05T07:01:16.000Z</time>
      </trkpt>
      <trkpt lat="28.354944" lon="-80.726231">
        <ele>1.686451</ele>
        <time>2023-11-05T07:01:16.000Z</time>
      </trkpt>
      <trkpt lat="28.355722" lon="-80.726239">
        <ele>1.736179</ele>
        <time>2023-11-05T07:01:25.000Z</time>
      </trkpt>
      <trkpt lat="28.356515" lon="-80.726248">
        <ele>1.768021</ele>
        <time>2023-11-05T07:01:34.000Z</time>
      </trkpt>
      <trkpt lat="28.356907" lon="-80.726244">
        <ele>1.759707</ele>
        <time>2023-11-05T07:01:38.000Z</time>
      </trkpt>
      <trkpt lat="28.357064" lon="-80.726371">
        <ele>1.755711</ele>
        <time>2023-11-05T07:01:40.000Z</time>
      </trkpt>
      <trkpt lat="28.357406" lon="-80.726712">
        <ele>1.746454</ele>
        <time>2023-11-05T07:01:45.000Z</time>
      </trkpt>
      <trkpt lat="28.357546" lon="-80.726851">
        <ele>1.742384</ele>
        <time>2023-11-05T07:01:47.000Z</time>
      </trkpt>
      <trkpt lat="28.357744" lon="-80.726995">
        <ele>1.737497</ele>
        <time>2023-11-05T07:01:50.000Z</time>
      </trkpt>
      <trkpt lat="28.358454" lon="-80.727359">
        <ele>1.738912</ele>
        <time>2023-11-05T07:01:59.000Z</time>
      </trkpt>
      <trkpt lat="28.358755" lon="-80.727581">
        <ele>1.740973</ele>
        <time>2023-11-05T07:02:03.000Z</time>
      </trkpt>
      <trkpt lat="28.358946" lon="-80.727893">
        <ele>1.743009</ele>
        <time>2023-11-05T07:02:07.000Z</time>
      </trkpt>
      <trkpt lat="28.359225" lon="-80.728144">
        <ele>1.745069</ele>
        <time>2023-11-05T07:02:11.000Z</time>
      </trkpt>
      <trkpt lat="28.361054" lon="-80.729166">
        <ele>1.464417</ele>
        <time>2023-11-05T07:02:34.000Z</time>
      </trkpt>
      <trkpt lat="28.361776" lon="-80.729546">
        <ele>1.489947</ele>
        <time>2023-11-05T07:02:43.000Z</time>
      </trkpt>
      <trkpt lat="28.362492" lon="-80.730034">
        <ele>1.516629</ele>
        <time>2023-11-05T07:02:52.000Z</time>
      </trkpt>
      <trkpt lat="28.363469" lon="-80.730604">
        <ele>1.715683</ele>
        <time>2023-11-05T07:03:04.000Z</time>
      </trkpt>
      <trkpt lat="28.364066" lon="-80.730881">
        <ele>1.832576</ele>
        <time>2023-11-05T07:03:11.000Z</time>
      </trkpt>
      <trkpt lat="28.364602" lon="-80.731111">
        <ele>1.962319</ele>
        <time>2023-11-05T07:03:17.000Z</time>
      </trkpt>
      <trkpt lat="28.365428" lon="-80.731526">
        <ele>2.165798</ele>
        <time>2023-11-05T07:03:27.000Z</time>
      </trkpt>
      <trkpt lat="28.365734" lon="-80.731678">
        <ele>2.243284</ele>
        <time>2023-11-05T07:03:31.000Z</time>
      </trkpt>
      <trkpt lat="28.366305" lon="-80.731896">
        <ele>3.028302</ele>
        <time>2023-11-05T07:03:38.000Z</time>
      </trkpt>
      <trkpt lat="28.367134" lon="-80.732226">
        <ele>4.317121</ele>
        <time>2023-11-05T07:03:48.000Z</time>
      </trkpt>
      <trkpt lat="28.367943" lon="-80.732672">
        <ele>5.551208</ele>
        <time>2023-11-05T07:03:58.000Z</time>
      </trkpt>
      <trkpt lat="28.368178" lon="-80.732746">
        <ele>5.891862</ele>
        <time>2023-11-05T07:04:01.000Z</time>
      </trkpt>
      <trkpt lat="28.368702" lon="-80.732893">
        <ele>6.615029</ele>
        <time>2023-11-05T07:04:07.000Z</time>
      </trkpt>
      <trkpt lat="28.369799" lon="-80.733412">
        <ele>6.101206</ele>
        <time>2023-11-05T07:04:20.000Z</time>
      </trkpt>
      <trkpt lat="28.370473" lon="-80.733578">
        <ele>4.898597</ele>
        <time>2023-11-05T07:04:28.000Z</time>
      </trkpt>
      <trkpt lat="28.37093" lon="-80.733671">
        <ele>4.105154</ele>
        <time>2023-11-05T07:04:33.000Z</time>
      </trkpt>
      <trkpt lat="28.371147" lon="-80.733734">
        <ele>3.835004</ele>
        <time>2023-11-05T07:04:35.000Z</time>
      </trkpt>
      <trkpt lat="28.371407" lon="-80.733798">
        <ele>3.485008</ele>
        <time>2023-11-05T07:04:38.000Z</time>
      </trkpt>
      <trkpt lat="28.372079" lon="-80.734022">
        <ele>2.604088</ele>
        <time>2023-11-05T07:04:46.000Z</time>
      </trkpt>
      <trkpt lat="28.373451" lon="-80.734691">
        <ele>1.889458</ele>
        <time>2023-11-05T07:05:03.000Z</time>
      </trkpt>
      <trkpt lat="28.374933" lon="-80.73543">
        <ele>1.863327</ele>
        <time>2023-11-05T07:05:21.000Z</time>
      </trkpt>
      <trkpt lat="28.376308" lon="-80.736104">
        <ele>1.643122</ele>
        <time>2023-11-05T07:05:38.000Z</time>
      </trkpt>
      <trkpt lat="28.376559" lon="-80.736236">
        <ele>1.54406</ele>
        <time>2023-11-05T07:05:41.000Z</time>
      </trkpt>
      <trkpt lat="28.376826" lon="-80.736322">
        <ele>1.437659</ele>
        <time>2023-11-05T07:05:44.000Z</time>
      </trkpt>
      <trkpt lat="28.377211" lon="-80.736272">
        <ele>1.288333</ele>
        <time>2023-11-05T07:05:48.000Z</time>
      </trkpt>
      <trkpt lat="28.377347" lon="-80.736225">
        <ele>1.236599</ele>
        <time>2023-11-05T07:05:50.000Z</time>
      </trkpt>
      <trkpt lat="28.377742" lon="-80.736118">
        <ele>1.079937</ele>
        <time>2023-11-05T07:05:55.000Z</time>
      </trkpt>
      <trkpt lat="28.378195" lon="-80.735958">
        <ele>0.877967</ele>
        <time>2023-11-05T07:06:00.000Z</time>
      </trkpt>
      <trkpt lat="28.378301" lon="-80.735928">
        <ele>0.828142</ele>
        <time>2023-11-05T07:06:01.000Z</time>
      </trkpt>
      <trkpt lat="28.378946" lon="-80.735639">
        <ele>0.535947</ele>
        <time>2023-11-05T07:06:09.000Z</time>
      </trkpt>
      <trkpt lat="28.379015" lon="-80.735591">
        <ele>0.502594</ele>
        <time>2023-11-05T07:06:10.000Z</time>
      </trkpt>
      <trkpt lat="28.379189" lon="-80.735472">
        <ele>0.415435</ele>
        <time>2023-11-05T07:06:12.000Z</time>
      </trkpt>
      <trkpt lat="28.379734" lon="-80.735151">
        <ele>0.425026</ele>
        <time>2023-11-05T07:06:19.000Z</time>
      </trkpt>
      <trkpt lat="28.379967" lon="-80.735191">
        <ele>0.451036</ele>
        <time>2023-11-05T07:06:22.000Z</time>
      </trkpt>
      <trkpt lat="28.381207" lon="-80.736362">
        <ele>0.675057</ele>
        <time>2023-11-05T07:06:40.000Z</time>
      </trkpt>
      <trkpt lat="28.381862" lon="-80.736781">
        <ele>0.829516</ele>
        <time>2023-11-05T07:06:48.000Z</time>
      </trkpt>
      <trkpt lat="28.382446" lon="-80.73696">
        <ele>0.957872</ele>
        <time>2023-11-05T07:06:55.000Z</time>
      </trkpt>
      <trkpt lat="28.383189" lon="-80.737437">
        <ele>1.185213</ele>
        <time>2023-11-05T07:07:04.000Z</time>
      </trkpt>
      <trkpt lat="28.383375" lon="-80.737645">
        <ele>1.255655</ele>
        <time>2023-11-05T07:07:07.000Z</time>
      </trkpt>
      <trkpt lat="28.383643" lon="-80.738273">
        <ele>1.429718</ele>
        <time>2023-11-05T07:07:14.000Z</time>
      </trkpt>
      <trkpt lat="28.384352" lon="-80.739198">
        <ele>2.021008</ele>
        <time>2023-11-05T07:07:26.000Z</time>
      </trkpt>
      <trkpt lat="28.384648" lon="-80.739806">
        <ele>2.362802</ele>
        <time>2023-11-05T07:07:33.000Z</time>
      </trkpt>
      <trkpt lat="28.385389" lon="-80.740283">
        <ele>2.651018</ele>
        <time>2023-11-05T07:07:42.000Z</time>
      </trkpt>
      <trkpt lat="28.386836" lon="-80.741124">
        <ele>2.968142</ele>
        <time>2023-11-05T07:08:00.000Z</time>
      </trkpt>
      <trkpt lat="28.387532" lon="-80.741434">
        <ele>2.953417</ele>
        <time>2023-11-05T07:08:08.000Z</time>
      </trkpt>
      <trkpt lat="28.389065" lon="-80.741882">
        <ele>3.009421</ele>
        <time>2023-11-05T07:08:26.000Z</time>
      </trkpt>
      <trkpt lat="28.389928" lon="-80.74184">
        <ele>3.177848</ele>
        <time>2023-11-05T07:08:36.000Z</time>
      </trkpt>
      <trkpt lat="28.390235" lon="-80.741904">
        <ele>3.355813</ele>
        <time>2023-11-05T07:08:39.000Z</time>
      </trkpt>
      <trkpt lat="28.39089" lon="-80.742268">
        <ele>3.801917</ele>
        <time>2023-11-05T07:08:47.000Z</time>
      </trkpt>
      <trkpt lat="28.391211" lon="-80.742377">
        <ele>4.00558</ele>
        <time>2023-11-05T07:08:51.000Z</time>
      </trkpt>
      <trkpt lat="28.392546" lon="-80.742898">
        <ele>4.904707</ele>
        <time>2023-11-05T07:09:07.000Z</time>
      </trkpt>
      <trkpt lat="28.392738" lon="-80.743019">
        <ele>5.046841</ele>
        <time>2023-11-05T07:09:09.000Z</time>
      </trkpt>
      <trkpt lat="28.393403" lon="-80.743533">
        <ele>5.354605</ele>
        <time>2023-11-05T07:09:18.000Z</time>
      </trkpt>
      <trkpt lat="28.394068" lon="-80.744135">
        <ele>5.485628</ele>
        <time>2023-11-05T07:09:27.000Z</time>
      </trkpt>
      <trkpt lat="28.395028" lon="-80.744627">
        <ele>5.281728</ele>
        <time>2023-11-05T07:09:39.000Z</time>
      </trkpt>
      <trkpt lat="28.39615" lon="-80.745126">
        <ele>4.646837</ele>
        <time>2023-11-05T07:09:52.000Z</time>
      </trkpt>
      <trkpt lat="28.39682" lon="-80.745418">
        <ele>4.125516</ele>
        <time>2023-11-05T07:10:00.000Z</time>
      </trkpt>
      <trkpt lat="28.398244" lon="-80.746019">
        <ele>3.108929</ele>
        <time>2023-11-05T07:10:17.000Z</time>
      </trkpt>
      <trkpt lat="28.398876" lon="-80.746255">
        <ele>2.814424</ele>
        <time>2023-11-05T07:10:24.000Z</time>
      </trkpt>
      <trkpt lat="28.400057" lon="-80.746494">
        <ele>2.273695</ele>
        <time>2023-11-05T07:10:37.000Z</time>
      </trkpt>
      <trkpt lat="28.400666" lon="-80.746616">
        <ele>1.991052</ele>
        <time>2023-11-05T07:10:44.000Z</time>
      </trkpt>
      <trkpt lat="28.401704" lon="-80.746501">
        <ele>1.533996</ele>
        <time>2023-11-05T07:10:56.000Z</time>
      </trkpt>
      <trkpt lat="28.402146" lon="-80.746382">
        <ele>1.360997</ele>
        <time>2023-11-05T07:11:01.000Z</time>
      </trkpt>
      <trkpt lat="28.402506" lon="-80.74618">
        <ele>1.209319</ele>
        <time>2023-11-05T07:11:05.000Z</time>
      </trkpt>
      <trkpt lat="28.402777" lon="-80.745926">
        <ele>1.077026</ele>
        <time>2023-11-05T07:11:09.000Z</time>
      </trkpt>
      <trkpt lat="28.403133" lon="-80.745945">
        <ele>0.959755</ele>
        <time>2023-11-05T07:11:13.000Z</time>
      </trkpt>
      <trkpt lat="28.404647" lon="-80.746914">
        <ele>0.813584</ele>
        <time>2023-11-05T07:11:32.000Z</time>
      </trkpt>
      <trkpt lat="28.404898" lon="-80.74732">
        <ele>0.835833</ele>
        <time>2023-11-05T07:11:37.000Z</time>
      </trkpt>
      <trkpt lat="28.405139" lon="-80.747598">
        <ele>0.852992</ele>
        <time>2023-11-05T07:11:41.000Z</time>
      </trkpt>
      <trkpt lat="28.40586" lon="-80.747953">
        <ele>0.892944</ele>
        <time>2023-11-05T07:11:50.000Z</time>
      </trkpt>
      <trkpt lat="28.406028" lon="-80.747985">
        <ele>0.900999</ele>
        <time>2023-11-05T07:11:52.000Z</time>
      </trkpt>
      <trkpt lat="28.407174" lon="-80.748601">
        <ele>0.915002</ele>
        <time>2023-11-05T07:12:06.000Z</time>
      </trkpt>
      <trkpt lat="28.407391" lon="-80.748692">
        <ele>0.916987</ele>
        <time>2023-11-05T07:12:09.000Z</time>
      </trkpt>
      <trkpt lat="28.408286" lon="-80.749308">
        <ele>0.867388</ele>
        <time>2023-11-05T07:12:21.000Z</time>
      </trkpt>
      <trkpt lat="28.409157" lon="-80.749456">
        <ele>0.800953</ele>
        <time>2023-11-05T07:12:31.000Z</time>
      </trkpt>
      <trkpt lat="28.409272" lon="-80.749468">
        <ele>0.791013</ele>
        <time>2023-11-05T07:12:32.000Z</time>
      </trkpt>
      <trkpt lat="28.409572" lon="-80.749481">
        <ele>0.766033</ele>
        <time>2023-11-05T07:12:35.000Z</time>
      </trkpt>
      <trkpt lat="28.409868" lon="-80.749417">
        <ele>0.74069</ele>
        <time>2023-11-05T07:12:38.000Z</time>
      </trkpt>
      <trkpt lat="28.41028" lon="-80.7493">
        <ele>0.703801</ele>
        <time>2023-11-05T07:12:43.000Z</time>
      </trkpt>
      <trkpt lat="28.410825" lon="-80.74917">
        <ele>0.655285</ele>
        <time>2023-11-05T07:12:49.000Z</time>
      </trkpt>
      <trkpt lat="28.411481" lon="-80.749114">
        <ele>0.650962</ele>
        <time>2023-11-05T07:12:56.000Z</time>
      </trkpt>
      <trkpt lat="28.412369" lon="-80.749131">
        <ele>0.718238</ele>
        <time>2023-11-05T07:13:06.000Z</time>
      </trkpt>
      <trkpt lat="28.413191" lon="-80.749784">
        <ele>0.812389</ele>
        <time>2023-11-05T07:13:17.000Z</time>
      </trkpt>
      <trkpt lat="28.413395" lon="-80.749902">
        <ele>0.838736</ele>
        <time>2023-11-05T07:13:20.000Z</time>
      </trkpt>
      <trkpt lat="28.413504" lon="-80.749968">
        <ele>0.853383</ele>
        <time>2023-11-05T07:13:21.000Z</time>
      </trkpt>
      <trkpt lat="28.414205" lon="-80.750305">
        <ele>0.943021</ele>
        <time>2023-11-05T07:13:29.000Z</time>
      </trkpt>
      <trkpt lat="28.414788" lon="-80.750436">
        <ele>0.949032</ele>
        <time>2023-11-05T07:13:36.000Z</time>
      </trkpt>
      <trkpt lat="28.415621" lon="-80.750553">
        <ele>0.883789</ele>
        <time>2023-11-05T07:13:45.000Z</time>
      </trkpt>
      <trkpt lat="28.4166" lon="-80.750674">
        <ele>0.794525</ele>
        <time>2023-11-05T07:13:56.000Z</time>
      </trkpt>
      <trkpt lat="28.417361" lon="-80.750843">
        <ele>0.708545</ele>
        <time>2023-11-05T07:14:05.000Z</time>
      </trkpt>
      <trkpt lat="28.418044" lon="-80.751152">
        <ele>0.63211</ele>
        <time>2023-11-05T07:14:13.000Z</time>
      </trkpt>
      <trkpt lat="28.418965" lon="-80.751527">
        <ele>0.58236</ele>
        <time>2023-11-05T07:14:24.000Z</time>
      </trkpt>
      <trkpt lat="28.419773" lon="-80.751931">
        <ele>0.547319</ele>
        <time>2023-11-05T07:14:34.000Z</time>
      </trkpt>
      <trkpt lat="28.421182" lon="-80.752345">
        <ele>0.585361</ele>
        <time>2023-11-05T07:14:50.000Z</time>
      </trkpt>
      <trkpt lat="28.421735" lon="-80.75245">
        <ele>0.592854</ele>
        <time>2023-11-05T07:14:56.000Z</time>
      </trkpt>
      <trkpt lat="28.422261" lon="-80.752639">
        <ele>0.595598</ele>
        <time>2023-11-05T07:15:02.000Z</time>
      </trkpt>
      <trkpt lat="28.42249" lon="-80.752635">
        <ele>0.596666</ele>
        <time>2023-11-05T07:15:05.000Z</time>
      </trkpt>
      <trkpt lat="28.423448" lon="-80.752645">
        <ele>0.608872</ele>
        <time>2023-11-05T07:15:16.000Z</time>
      </trkpt>
      <trkpt lat="28.423873" lon="-80.752702">
        <ele>0.621638</ele>
        <time>2023-11-05T07:15:21.000Z</time>
      </trkpt>
      <trkpt lat="28.424285" lon="-80.752992">
        <ele>0.636446</ele>
        <time>2023-11-05T07:15:26.000Z</time>
      </trkpt>
      <trkpt lat="28.427372" lon="-80.754673">
        <ele>0.895154</ele>
        <time>2023-11-05T07:16:04.000Z</time>
      </trkpt>
      <trkpt lat="28.428519" lon="-80.755121">
        <ele>0.955021</ele>
        <time>2023-11-05T07:16:17.000Z</time>
      </trkpt>
      <trkpt lat="28.429455" lon="-80.755401">
        <ele>0.947611</ele>
        <time>2023-11-05T07:16:28.000Z</time>
      </trkpt>
      <trkpt lat="28.43007" lon="-80.755531">
        <ele>0.928248</ele>
        <time>2023-11-05T07:16:35.000Z</time>
      </trkpt>
      <trkpt lat="28.430175" lon="-80.755545">
        <ele>0.920672</ele>
        <time>2023-11-05T07:16:36.000Z</time>
      </trkpt>
      <trkpt lat="28.430496" lon="-80.755627">
        <ele>0.897189</ele>
        <time>2023-11-05T07:16:40.000Z</time>
      </trkpt>
      <trkpt lat="28.430531" lon="-80.755633">
        <ele>0.894147</ele>
        <time>2023-11-05T07:16:40.000Z</time>
      </trkpt>
      <trkpt lat="28.431482" lon="-80.755869">
        <ele>0.82482</ele>
        <time>2023-11-05T07:16:51.000Z</time>
      </trkpt>
      <trkpt lat="28.432287" lon="-80.756145">
        <ele>0.775978</ele>
        <time>2023-11-05T07:17:00.000Z</time>
      </trkpt>
      <trkpt lat="28.433148" lon="-80.756339">
        <ele>0.726647</ele>
        <time>2023-11-05T07:17:10.000Z</time>
      </trkpt>
      <trkpt lat="28.433579" lon="-80.756607">
        <ele>0.703682</ele>
        <time>2023-11-05T07:17:15.000Z</time>
      </trkpt>
      <trkpt lat="28.434153" lon="-80.756893">
        <ele>0.677625</ele>
        <time>2023-11-05T07:17:22.000Z</time>
      </trkpt>
      <trkpt lat="28.434329" lon="-80.756951">
        <ele>0.670104</ele>
        <time>2023-11-05T07:17:24.000Z</time>
      </trkpt>
      <trkpt lat="28.435371" lon="-80.757248">
        <ele>0.61989</ele>
        <time>2023-11-05T07:17:36.000Z</time>
      </trkpt>
      <trkpt lat="28.436294" lon="-80.757585">
        <ele>0.56567</ele>
        <time>2023-11-05T07:17:47.000Z</time>
      </trkpt>
      <trkpt lat="28.43685" lon="-80.757628">
        <ele>0.538013</ele>
        <time>2023-11-05T07:17:53.000Z</time>
      </trkpt>
      <trkpt lat="28.437083" lon="-80.757692">
        <ele>0.532713</ele>
        <time>2023-11-05T07:17:56.000Z</time>
      </trkpt>
      <trkpt lat="28.437557" lon="-80.757911">
        <ele>0.521472</ele>
        <time>2023-11-05T07:18:02.000Z</time>
      </trkpt>
      <trkpt lat="28.437985" lon="-80.75826">
        <ele>0.509604</ele>
        <time>2023-11-05T07:18:08.000Z</time>
      </trkpt>
      <trkpt lat="28.438848" lon="-80.758397">
        <ele>0.500131</ele>
        <time>2023-11-05T07:18:18.000Z</time>
      </trkpt>
      <trkpt lat="28.437984" lon="-80.758261">
        <ele>0.500358</ele>
        <time>2023-11-05T07:18:28.000Z</time>
      </trkpt>
      <trkpt lat="28.437547" lon="-80.75791">
        <ele>0.503767</ele>
        <time>2023-11-05T07:18:34.000Z</time>
      </trkpt>
      <trkpt lat="28.437085" lon="-80.757694">
        <ele>0.529483</ele>
        <time>2023-11-05T07:18:40.000Z</time>
      </trkpt>
      <trkpt lat="28.436853" lon="-80.757629">
        <ele>0.541637</ele>
        <time>2023-11-05T07:18:43.000Z</time>
      </trkpt>
      <trkpt lat="28.43631" lon="-80.757571">
        <ele>0.570371</ele>
        <time>2023-11-05T07:18:49.000Z</time>
      </trkpt>
      <trkpt lat="28.435368" lon="-80.757233">
        <ele>0.620742</ele>
        <time>2023-11-05T07:19:00.000Z</time>
      </trkpt>
      <trkpt lat="28.434331" lon="-80.756936">
        <ele>0.677123</ele>
        <time>2023-11-05T07:19:12.000Z</time>
      </trkpt>
      <trkpt lat="28.434156" lon="-80.756895">
        <ele>0.686614</ele>
        <time>2023-11-05T07:19:14.000Z</time>
      </trkpt>
      <trkpt lat="28.433578" lon="-80.756598">
        <ele>0.713615</ele>
        <time>2023-11-05T07:19:21.000Z</time>
      </trkpt>
      <trkpt lat="28.433159" lon="-80.756348">
        <ele>0.73438</ele>
        <time>2023-11-05T07:19:26.000Z</time>
      </trkpt>
      <trkpt lat="28.432297" lon="-80.756144">
        <ele>0.774859</ele>
        <time>2023-11-05T07:19:36.000Z</time>
      </trkpt>
      <trkpt lat="28.431495" lon="-80.755856">
        <ele>0.823414</ele>
        <time>2023-11-05T07:19:45.000Z</time>
      </trkpt>
      <trkpt lat="28.430541" lon="-80.755636">
        <ele>0.881516</ele>
        <time>2023-11-05T07:19:56.000Z</time>
      </trkpt>
      <trkpt lat="28.430492" lon="-80.755613">
        <ele>0.884381</ele>
        <time>2023-11-05T07:19:57.000Z</time>
      </trkpt>
      <trkpt lat="28.43018" lon="-80.755555">
        <ele>0.906444</ele>
        <time>2023-11-05T07:20:01.000Z</time>
      </trkpt>
      <trkpt lat="28.430071" lon="-80.755539">
        <ele>0.913559</ele>
        <time>2023-11-05T07:20:02.000Z</time>
      </trkpt>
      <trkpt lat="28.429472" lon="-80.755399">
        <ele>0.954707</ele>
        <time>2023-11-05T07:20:09.000Z</time>
      </trkpt>
      <trkpt lat="28.428527" lon="-80.755125">
        <ele>0.962954</ele>
        <time>2023-11-05T07:20:20.000Z</time>
      </trkpt>
      <trkpt lat="28.427377" lon="-80.754675">
        <ele>0.895244</ele>
        <time>2023-11-05T07:20:34.000Z</time>
      </trkpt>
      <trkpt lat="28.424279" lon="-80.753006">
        <ele>0.628694</ele>
        <time>2023-11-05T07:21:12.000Z</time>
      </trkpt>
      <trkpt lat="28.423871" lon="-80.752713">
        <ele>0.608104</ele>
        <time>2023-11-05T07:21:17.000Z</time>
      </trkpt>
      <trkpt lat="28.423451" lon="-80.752648">
        <ele>0.605988</ele>
        <time>2023-11-05T07:21:22.000Z</time>
      </trkpt>
      <trkpt lat="28.422485" lon="-80.752634">
        <ele>0.601059</ele>
        <time>2023-11-05T07:21:33.000Z</time>
      </trkpt>
      <trkpt lat="28.422267" lon="-80.752626">
        <ele>0.599803</ele>
        <time>2023-11-05T07:21:35.000Z</time>
      </trkpt>
      <trkpt lat="28.42172" lon="-80.752442">
        <ele>0.585317</ele>
        <time>2023-11-05T07:21:41.000Z</time>
      </trkpt>
      <trkpt lat="28.42118" lon="-80.752356">
        <ele>0.570798</ele>
        <time>2023-11-05T07:21:47.000Z</time>
      </trkpt>
      <trkpt lat="28.419774" lon="-80.751933">
        <ele>0.565694</ele>
        <time>2023-11-05T07:22:03.000Z</time>
      </trkpt>
      <trkpt lat="28.418954" lon="-80.751538">
        <ele>0.579652</ele>
        <time>2023-11-05T07:22:13.000Z</time>
      </trkpt>
      <trkpt lat="28.418042" lon="-80.751149">
        <ele>0.650098</ele>
        <time>2023-11-05T07:22:24.000Z</time>
      </trkpt>
      <trkpt lat="28.417366" lon="-80.750839">
        <ele>0.708716</ele>
        <time>2023-11-05T07:22:32.000Z</time>
      </trkpt>
      <trkpt lat="28.416604" lon="-80.750663">
        <ele>0.788999</ele>
        <time>2023-11-05T07:22:41.000Z</time>
      </trkpt>
      <trkpt lat="28.415613" lon="-80.750551">
        <ele>0.90079</ele>
        <time>2023-11-05T07:22:52.000Z</time>
      </trkpt>
      <trkpt lat="28.414775" lon="-80.75044">
        <ele>0.917301</ele>
        <time>2023-11-05T07:23:01.000Z</time>
      </trkpt>
      <trkpt lat="28.414212" lon="-80.750296">
        <ele>0.905334</ele>
        <time>2023-11-05T07:23:07.000Z</time>
      </trkpt>
      <trkpt lat="28.413502" lon="-80.749979">
        <ele>0.875619</ele>
        <time>2023-11-05T07:23:15.000Z</time>
      </trkpt>
      <trkpt lat="28.413398" lon="-80.749912">
        <ele>0.860036</ele>
        <time>2023-11-05T07:23:16.000Z</time>
      </trkpt>
      <trkpt lat="28.413191" lon="-80.749786">
        <ele>0.831985</ele>
        <time>2023-11-05T07:23:19.000Z</time>
      </trkpt>
      <trkpt lat="28.412365" lon="-80.749124">
        <ele>0.705704</ele>
        <time>2023-11-05T07:23:30.000Z</time>
      </trkpt>
      <trkpt lat="28.411477" lon="-80.749113">
        <ele>0.672701</ele>
        <time>2023-11-05T07:23:40.000Z</time>
      </trkpt>
      <trkpt lat="28.410819" lon="-80.749178">
        <ele>0.678764</ele>
        <time>2023-11-05T07:23:47.000Z</time>
      </trkpt>
      <trkpt lat="28.410279" lon="-80.749307">
        <ele>0.683889</ele>
        <time>2023-11-05T07:23:53.000Z</time>
      </trkpt>
      <trkpt lat="28.409858" lon="-80.749425">
        <ele>0.725842</ele>
        <time>2023-11-05T07:23:58.000Z</time>
      </trkpt>
      <trkpt lat="28.409581" lon="-80.749482">
        <ele>0.754726</ele>
        <time>2023-11-05T07:24:01.000Z</time>
      </trkpt>
      <trkpt lat="28.409283" lon="-80.749477">
        <ele>0.784478</ele>
        <time>2023-11-05T07:24:04.000Z</time>
      </trkpt>
      <trkpt lat="28.409142" lon="-80.749452">
        <ele>0.797383</ele>
        <time>2023-11-05T07:24:06.000Z</time>
      </trkpt>
      <trkpt lat="28.408284" lon="-80.749314">
        <ele>0.871713</ele>
        <time>2023-11-05T07:24:16.000Z</time>
      </trkpt>
      <trkpt lat="28.407393" lon="-80.748705">
        <ele>0.918205</ele>
        <time>2023-11-05T07:24:28.000Z</time>
      </trkpt>
      <trkpt lat="28.407178" lon="-80.748593">
        <ele>0.928264</ele>
        <time>2023-11-05T07:24:31.000Z</time>
      </trkpt>
      <trkpt lat="28.406018" lon="-80.747985">
        <ele>0.884024</ele>
        <time>2023-11-05T07:24:45.000Z</time>
      </trkpt>
      <trkpt lat="28.405871" lon="-80.747942">
        <ele>0.874567</ele>
        <time>2023-11-05T07:24:47.000Z</time>
      </trkpt>
      <trkpt lat="28.40513" lon="-80.747594">
        <ele>0.836246</ele>
        <time>2023-11-05T07:24:56.000Z</time>
      </trkpt>
      <trkpt lat="28.404908" lon="-80.747317">
        <ele>0.839395</ele>
        <time>2023-11-05T07:25:00.000Z</time>
      </trkpt>
      <trkpt lat="28.404638" lon="-80.746913">
        <ele>0.843488</ele>
        <time>2023-11-05T07:25:05.000Z</time>
      </trkpt>
      <trkpt lat="28.403141" lon="-80.745936">
        <ele>1.033093</ele>
        <time>2023-11-05T07:25:24.000Z</time>
      </trkpt>
      <trkpt lat="28.402783" lon="-80.745931">
        <ele>1.111289</ele>
        <time>2023-11-05T07:25:28.000Z</time>
      </trkpt>
      <trkpt lat="28.402504" lon="-80.746175">
        <ele>1.186804</ele>
        <time>2023-11-05T07:25:32.000Z</time>
      </trkpt>
      <trkpt lat="28.402139" lon="-80.746377">
        <ele>1.31107</ele>
        <time>2023-11-05T07:25:37.000Z</time>
      </trkpt>
      <trkpt lat="28.40171" lon="-80.746504">
        <ele>1.521816</ele>
        <time>2023-11-05T07:25:42.000Z</time>
      </trkpt>
      <trkpt lat="28.400658" lon="-80.746619">
        <ele>2.002179</ele>
        <time>2023-11-05T07:25:54.000Z</time>
      </trkpt>
      <trkpt lat="28.400056" lon="-80.746511">
        <ele>2.258982</ele>
        <time>2023-11-05T07:26:01.000Z</time>
      </trkpt>
      <trkpt lat="28.398886" lon="-80.746242">
        <ele>2.748848</ele>
        <time>2023-11-05T07:26:14.000Z</time>
      </trkpt>
      <trkpt lat="28.398245" lon="-80.746017">
        <ele>3.143173</ele>
        <time>2023-11-05T07:26:21.000Z</time>
      </trkpt>
      <trkpt lat="28.396831" lon="-80.745405">
        <ele>4.127732</ele>
        <time>2023-11-05T07:26:38.000Z</time>
      </trkpt>
      <trkpt lat="28.396146" lon="-80.745119">
        <ele>4.638366</ele>
        <time>2023-11-05T07:26:46.000Z</time>
      </trkpt>
      <trkpt lat="28.395033" lon="-80.74463">
        <ele>5.289482</ele>
        <time>2023-11-05T07:26:59.000Z</time>
      </trkpt>
      <trkpt lat="28.394073" lon="-80.744149">
        <ele>5.47027</ele>
        <time>2023-11-05T07:27:11.000Z</time>
      </trkpt>
      <trkpt lat="28.393407" lon="-80.743539">
        <ele>5.334801</ele>
        <time>2023-11-05T07:27:21.000Z</time>
      </trkpt>
      <trkpt lat="28.39275" lon="-80.743015">
        <ele>5.003125</ele>
        <time>2023-11-05T07:27:30.000Z</time>
      </trkpt>
      <trkpt lat="28.39255" lon="-80.742893">
        <ele>4.911662</ele>
        <time>2023-11-05T07:27:33.000Z</time>
      </trkpt>
      <trkpt lat="28.391208" lon="-80.742375">
        <ele>3.992981</ele>
        <time>2023-11-05T07:27:49.000Z</time>
      </trkpt>
      <trkpt lat="28.390898" lon="-80.742263">
        <ele>3.752333</ele>
        <time>2023-11-05T07:27:53.000Z</time>
      </trkpt>
      <trkpt lat="28.390222" lon="-80.741914">
        <ele>3.370851</ele>
        <time>2023-11-05T07:28:01.000Z</time>
      </trkpt>
      <trkpt lat="28.389939" lon="-80.741846">
        <ele>3.269367</ele>
        <time>2023-11-05T07:28:04.000Z</time>
      </trkpt>
      <trkpt lat="28.389076" lon="-80.741885">
        <ele>2.969775</ele>
        <time>2023-11-05T07:28:14.000Z</time>
      </trkpt>
      <trkpt lat="28.387529" lon="-80.741439">
        <ele>2.993225</ele>
        <time>2023-11-05T07:28:32.000Z</time>
      </trkpt>
      <trkpt lat="28.38684" lon="-80.741122">
        <ele>2.985621</ele>
        <time>2023-11-05T07:28:40.000Z</time>
      </trkpt>
      <trkpt lat="28.385399" lon="-80.74028">
        <ele>2.715631</ele>
        <time>2023-11-05T07:28:58.000Z</time>
      </trkpt>
      <trkpt lat="28.384665" lon="-80.73982">
        <ele>2.302136</ele>
        <time>2023-11-05T07:29:07.000Z</time>
      </trkpt>
      <trkpt lat="28.384334" lon="-80.739194">
        <ele>1.996983</ele>
        <time>2023-11-05T07:29:14.000Z</time>
      </trkpt>
      <trkpt lat="28.383628" lon="-80.738265">
        <ele>1.50411</ele>
        <time>2023-11-05T07:29:26.000Z</time>
      </trkpt>
      <trkpt lat="28.383375" lon="-80.737637">
        <ele>1.229849</ele>
        <time>2023-11-05T07:29:33.000Z</time>
      </trkpt>
      <trkpt lat="28.383185" lon="-80.737446">
        <ele>1.111764</ele>
        <time>2023-11-05T07:29:36.000Z</time>
      </trkpt>
      <trkpt lat="28.382442" lon="-80.736962">
        <ele>0.949808</ele>
        <time>2023-11-05T07:29:46.000Z</time>
      </trkpt>
      <trkpt lat="28.381877" lon="-80.736779">
        <ele>0.846705</ele>
        <time>2023-11-05T07:29:53.000Z</time>
      </trkpt>
      <trkpt lat="28.3812" lon="-80.736369">
        <ele>0.6981</ele>
        <time>2023-11-05T07:30:02.000Z</time>
      </trkpt>
      <trkpt lat="28.379975" lon="-80.735204">
        <ele>0.401709</ele>
        <time>2023-11-05T07:30:20.000Z</time>
      </trkpt>
      <trkpt lat="28.379722" lon="-80.735157">
        <ele>0.438398</ele>
        <time>2023-11-05T07:30:23.000Z</time>
      </trkpt>
      <trkpt lat="28.379193" lon="-80.735482">
        <ele>0.528639</ele>
        <time>2023-11-05T07:30:30.000Z</time>
      </trkpt>
      <trkpt lat="28.379017" lon="-80.735587">
        <ele>0.559392</ele>
        <time>2023-11-05T07:30:32.000Z</time>
      </trkpt>
      <trkpt lat="28.378943" lon="-80.735652">
        <ele>0.571163</ele>
        <time>2023-11-05T07:30:33.000Z</time>
      </trkpt>
      <trkpt lat="28.378307" lon="-80.735927">
        <ele>0.742901</ele>
        <time>2023-11-05T07:30:41.000Z</time>
      </trkpt>
      <trkpt lat="28.378188" lon="-80.73596">
        <ele>0.804199</ele>
        <time>2023-11-05T07:30:42.000Z</time>
      </trkpt>
      <trkpt lat="28.377733" lon="-80.736104">
        <ele>1.05258</ele>
        <time>2023-11-05T07:30:47.000Z</time>
      </trkpt>
      <trkpt lat="28.377348" lon="-80.736221">
        <ele>1.260815</ele>
        <time>2023-11-05T07:30:51.000Z</time>
      </trkpt>
      <trkpt lat="28.377206" lon="-80.736255">
        <ele>1.33229</ele>
        <time>2023-11-05T07:30:53.000Z</time>
      </trkpt>
      <trkpt lat="28.376828" lon="-80.736321">
        <ele>1.538602</ele>
        <time>2023-11-05T07:30:57.000Z</time>
      </trkpt>
      <trkpt lat="28.376547" lon="-80.736233">
        <ele>1.615999</ele>
        <time>2023-11-05T07:31:00.000Z</time>
      </trkpt>
      <trkpt lat="28.376318" lon="-80.73612">
        <ele>1.659107</ele>
        <time>2023-11-05T07:31:03.000Z</time>
      </trkpt>
      <trkpt lat="28.374941" lon="-80.735446">
        <ele>1.879746</ele>
        <time>2023-11-05T07:31:20.000Z</time>
      </trkpt>
      <trkpt lat="28.373442" lon="-80.734685">
        <ele>1.884559</ele>
        <time>2023-11-05T07:31:38.000Z</time>
      </trkpt>
      <trkpt lat="28.372078" lon="-80.734021">
        <ele>2.341485</ele>
        <time>2023-11-05T07:31:54.000Z</time>
      </trkpt>
      <trkpt lat="28.371408" lon="-80.733795">
        <ele>3.216352</ele>
        <time>2023-11-05T07:32:02.000Z</time>
      </trkpt>
      <trkpt lat="28.371141" lon="-80.733736">
        <ele>3.787071</ele>
        <time>2023-11-05T07:32:05.000Z</time>
      </trkpt>
      <trkpt lat="28.370934" lon="-80.733679">
        <ele>4.227588</ele>
        <time>2023-11-05T07:32:07.000Z</time>
      </trkpt>
      <trkpt lat="28.370465" lon="-80.733573">
        <ele>5.195268</ele>
        <time>2023-11-05T07:32:12.000Z</time>
      </trkpt>
      <trkpt lat="28.369786" lon="-80.733405">
        <ele>6.230899</ele>
        <time>2023-11-05T07:32:20.000Z</time>
      </trkpt>
      <trkpt lat="28.368712" lon="-80.7329">
        <ele>6.614453</ele>
        <time>2023-11-05T07:32:33.000Z</time>
      </trkpt>
      <trkpt lat="28.368196" lon="-80.732746">
        <ele>6.464612</ele>
        <time>2023-11-05T07:32:39.000Z</time>
      </trkpt>
      <trkpt lat="28.367949" lon="-80.732674">
        <ele>5.959054</ele>
        <time>2023-11-05T07:32:42.000Z</time>
      </trkpt>
      <trkpt lat="28.367147" lon="-80.732235">
        <ele>4.183988</ele>
        <time>2023-11-05T07:32:52.000Z</time>
      </trkpt>
      <trkpt lat="28.3663" lon="-80.7319">
        <ele>2.904842</ele>
        <time>2023-11-05T07:33:02.000Z</time>
      </trkpt>
      <trkpt lat="28.365742" lon="-80.731669">
        <ele>2.510341</ele>
        <time>2023-11-05T07:33:09.000Z</time>
      </trkpt>
      <trkpt lat="28.365428" lon="-80.731526">
        <ele>2.285195</ele>
        <time>2023-11-05T07:33:13.000Z</time>
      </trkpt>
      <trkpt lat="28.364618" lon="-80.731108">
        <ele>1.900266</ele>
        <time>2023-11-05T07:33:23.000Z</time>
      </trkpt>
      <trkpt lat="28.364063" lon="-80.730873">
        <ele>1.810906</ele>
        <time>2023-11-05T07:33:30.000Z</time>
      </trkpt>
      <trkpt lat="28.363474" lon="-80.730603">
        <ele>1.713888</ele>
        <time>2023-11-05T07:33:37.000Z</time>
      </trkpt>
      <trkpt lat="28.362503" lon="-80.730038">
        <ele>1.773745</ele>
        <time>2023-11-05T07:33:49.000Z</time>
      </trkpt>
      <trkpt lat="28.361771" lon="-80.729541">
        <ele>1.850641</ele>
        <time>2023-11-05T07:33:58.000Z</time>
      </trkpt>
      <trkpt lat="28.361063" lon="-80.729167">
        <ele>2.848616</ele>
        <time>2023-11-05T07:34:07.000Z</time>
      </trkpt>
      <trkpt lat="28.361057" lon="-80.730956">
        <ele>4.768366</ele>
        <time>2023-11-05T07:34:25.000Z</time>
      </trkpt>
      <trkpt lat="28.361041" lon="-80.731017">
        <ele>4.838593</ele>
        <time>2023-11-05T07:34:26.000Z</time>
      </trkpt>
      <trkpt lat="28.360866" lon="-80.73088">
        <ele>5.051476</ele>
        <time>2023-11-05T07:34:28.000Z</time>
      </trkpt>
      <trkpt lat="28.360679" lon="-80.730709">
        <ele>5.307638</ele>
        <time>2023-11-05T07:34:31.000Z</time>
      </trkpt>
      <trkpt lat="28.360517" lon="-80.730551">
        <ele>5.52836</ele>
        <time>2023-11-05T07:34:33.000Z</time>
      </trkpt>
      <trkpt lat="28.360347" lon="-80.730447">
        <ele>5.728965</ele>
        <time>2023-11-05T07:34:35.000Z</time>
      </trkpt>
      <trkpt lat="28.359911" lon="-80.730356">
        <ele>6.008806</ele>
        <time>2023-11-05T07:34:40.000Z</time>
      </trkpt>
      <trkpt lat="28.359815" lon="-80.730351">
        <ele>5.939105</ele>
        <time>2023-11-05T07:34:41.000Z</time>
      </trkpt>
      <trkpt lat="28.359343" lon="-80.730349">
        <ele>5.550359</ele>
        <time>2023-11-05T07:34:46.000Z</time>
      </trkpt>
      <trkpt lat="28.359212" lon="-80.730342">
        <ele>5.444545</ele>
        <time>2023-11-05T07:34:47.000Z</time>
      </trkpt>
      <trkpt lat="28.359222" lon="-80.730279">
        <ele>5.400533</ele>
        <time>2023-11-05T07:34:48.000Z</time>
      </trkpt>
      <trkpt lat="28.359213" lon="-80.729613">
        <ele>4.915556</ele>
        <time>2023-11-05T07:34:55.000Z</time>
      </trkpt>
      <trkpt lat="28.359229" lon="-80.729469">
        <ele>4.811629</ele>
        <time>2023-11-05T07:34:56.000Z</time>
      </trkpt>
      <trkpt lat="28.359212" lon="-80.72907">
        <ele>4.472014</ele>
        <time>2023-11-05T07:35:00.000Z</time>
      </trkpt>
      <trkpt lat="28.359211" lon="-80.728892">
        <ele>4.285386</ele>
        <time>2023-11-05T07:35:02.000Z</time>
      </trkpt>
      <trkpt lat="28.359229" lon="-80.728624">
        <ele>4.011333</ele>
        <time>2023-11-05T07:35:05.000Z</time>
      </trkpt>
      <trkpt lat="28.359213" lon="-80.728585">
        <ele>3.966542</ele>
        <time>2023-11-05T07:35:05.000Z</time>
      </trkpt>
      <trkpt lat="28.359221" lon="-80.728199">
        <ele>3.550662</ele>
        <time>2023-11-05T07:35:09.000Z</time>
      </trkpt>
      <trkpt lat="28.359211" lon="-80.728147">
        <ele>3.489882</ele>
        <time>2023-11-05T07:35:10.000Z</time>
      </trkpt>
      <trkpt lat="28.361064" lon="-80.729166">
        <ele>1.780894</ele>
        <time>2023-11-05T07:35:33.000Z</time>
      </trkpt>
      <trkpt lat="28.361782" lon="-80.729547">
        <ele>1.458199</ele>
        <time>2023-11-05T07:35:42.000Z</time>
      </trkpt>
      <trkpt lat="28.362487" lon="-80.730027">
        <ele>1.559795</ele>
        <time>2023-11-05T07:35:51.000Z</time>
      </trkpt>
      <trkpt lat="28.363469" lon="-80.730612">
        <ele>1.706609</ele>
        <time>2023-11-05T07:36:03.000Z</time>
      </trkpt>
      <trkpt lat="28.364066" lon="-80.730875">
        <ele>1.808863</ele>
        <time>2023-11-05T07:36:10.000Z</time>
      </trkpt>
      <trkpt lat="28.364613" lon="-80.731112">
        <ele>1.903047</ele>
        <time>2023-11-05T07:36:17.000Z</time>
      </trkpt>
      <trkpt lat="28.365437" lon="-80.731523">
        <ele>2.299166</ele>
        <time>2023-11-05T07:36:27.000Z</time>
      </trkpt>
      <trkpt lat="28.365746" lon="-80.731669">
        <ele>2.490831</ele>
        <time>2023-11-05T07:36:31.000Z</time>
      </trkpt>
      <trkpt lat="28.366309" lon="-80.73189">
        <ele>2.826689</ele>
        <time>2023-11-05T07:36:38.000Z</time>
      </trkpt>
      <trkpt lat="28.367144" lon="-80.732239">
        <ele>4.258004</ele>
        <time>2023-11-05T07:36:48.000Z</time>
      </trkpt>
      <trkpt lat="28.367948" lon="-80.732679">
        <ele>6.019563</ele>
        <time>2023-11-05T07:36:58.000Z</time>
      </trkpt>
      <trkpt lat="28.368181" lon="-80.732739">
        <ele>6.521307</ele>
        <time>2023-11-05T07:37:01.000Z</time>
      </trkpt>
      <trkpt lat="28.368702" lon="-80.732906">
        <ele>6.487512</ele>
        <time>2023-11-05T07:37:07.000Z</time>
      </trkpt>
      <trkpt lat="28.369799" lon="-80.733411">
        <ele>6.407951</ele>
        <time>2023-11-05T07:37:20.000Z</time>
      </trkpt>
      <trkpt lat="28.370467" lon="-80.733572">
        <ele>5.135093</ele>
        <time>2023-11-05T07:37:28.000Z</time>
      </trkpt>
      <trkpt lat="28.370924" lon="-80.733669">
        <ele>4.152808</ele>
        <time>2023-11-05T07:37:33.000Z</time>
      </trkpt>
      <trkpt lat="28.371146" lon="-80.733725">
        <ele>3.705642</ele>
        <time>2023-11-05T07:37:36.000Z</time>
      </trkpt>
      <trkpt lat="28.371411" lon="-80.733796">
        <ele>3.126314</ele>
        <time>2023-11-05T07:37:39.000Z</time>
      </trkpt>
      <trkpt lat="28.372077" lon="-80.734014">
        <ele>2.438368</ele>
        <time>2023-11-05T07:37:47.000Z</time>
      </trkpt>
      <trkpt lat="28.37344" lon="-80.734694">
        <ele>1.879917</ele>
        <time>2023-11-05T07:38:04.000Z</time>
      </trkpt>
      <trkpt lat="28.374934" lon="-80.735433">
        <ele>1.884299</ele>
        <time>2023-11-05T07:38:22.000Z</time>
      </trkpt>
      <trkpt lat="28.37632" lon="-80.73611">
        <ele>1.677794</ele>
        <time>2023-11-05T07:38:39.000Z</time>
      </trkpt>
      <trkpt lat="28.37655" lon="-80.736223">
        <ele>1.641139</ele>
        <time>2023-11-05T07:38:42.000Z</time>
      </trkpt>
      <trkpt lat="28.376818" lon="-80.736333">
        <ele>1.518066</ele>
        <time>2023-11-05T07:38:45.000Z</time>
      </trkpt>
      <trkpt lat="28.37722" lon="-80.736257">
        <ele>1.316061</ele>
        <time>2023-11-05T07:38:50.000Z</time>
      </trkpt>
      <trkpt lat="28.37734" lon="-80.736227">
        <ele>1.246096</ele>
        <time>2023-11-05T07:38:51.000Z</time>
      </trkpt>
      <trkpt lat="28.377741" lon="-80.736117">
        <ele>1.042226</ele>
        <time>2023-11-05T07:38:56.000Z</time>
      </trkpt>
      <trkpt lat="28.3782" lon="-80.735962">
        <ele>0.799034</ele>
        <time>2023-11-05T07:39:01.000Z</time>
      </trkpt>
      <trkpt lat="28.378302" lon="-80.735922">
        <ele>0.739022</ele>
        <time>2023-11-05T07:39:02.000Z</time>
      </trkpt>
      <trkpt lat="28.378951" lon="-80.735645">
        <ele>0.587917</ele>
        <time>2023-11-05T07:39:10.000Z</time>
      </trkpt>
      <trkpt lat="28.379022" lon="-80.735596">
        <ele>0.572301</ele>
        <time>2023-11-05T07:39:11.000Z</time>
      </trkpt>
      <trkpt lat="28.379193" lon="-80.735482">
        <ele>0.531515</ele>
        <time>2023-11-05T07:39:13.000Z</time>
      </trkpt>
      <trkpt lat="28.37973" lon="-80.735164">
        <ele>0.411765</ele>
        <time>2023-11-05T07:39:20.000Z</time>
      </trkpt>
      <trkpt lat="28.379965" lon="-80.735196">
        <ele>0.363092</ele>
        <time>2023-11-05T07:39:23.000Z</time>
      </trkpt>
      <trkpt lat="28.381194" lon="-80.736358">
        <ele>0.70259</ele>
        <time>2023-11-05T07:39:41.000Z</time>
      </trkpt>
      <trkpt lat="28.381866" lon="-80.736776">
        <ele>0.841145</ele>
        <time>2023-11-05T07:39:50.000Z</time>
      </trkpt>
      <trkpt lat="28.382447" lon="-80.736968">
        <ele>0.941743</ele>
        <time>2023-11-05T07:39:57.000Z</time>
      </trkpt>
      <trkpt lat="28.383184" lon="-80.737439">
        <ele>1.134288</ele>
        <time>2023-11-05T07:40:06.000Z</time>
      </trkpt>
      <trkpt lat="28.383382" lon="-80.737635">
        <ele>1.245698</ele>
        <time>2023-11-05T07:40:09.000Z</time>
      </trkpt>
      <trkpt lat="28.383628" lon="-80.738267">
        <ele>1.504407</ele>
        <time>2023-11-05T07:40:16.000Z</time>
      </trkpt>
      <trkpt lat="28.384344" lon="-80.739194">
        <ele>1.991251</ele>
        <time>2023-11-05T07:40:28.000Z</time>
      </trkpt>
      <trkpt lat="28.384653" lon="-80.739819">
        <ele>2.308752</ele>
        <time>2023-11-05T07:40:35.000Z</time>
      </trkpt>
      <trkpt lat="28.3854" lon="-80.740289">
        <ele>2.731781</ele>
        <time>2023-11-05T07:40:44.000Z</time>
      </trkpt>
      <trkpt lat="28.386839" lon="-80.741114">
        <ele>3.002924</ele>
        <time>2023-11-05T07:41:02.000Z</time>
      </trkpt>
      <trkpt lat="28.387524" lon="-80.741444">
        <ele>2.982266</ele>
        <time>2023-11-05T07:41:10.000Z</time>
      </trkpt>
      <trkpt lat="28.389076" lon="-80.741895">
        <ele>2.996544</ele>
        <time>2023-11-05T07:41:28.000Z</time>
      </trkpt>
      <trkpt lat="28.389941" lon="-80.741843">
        <ele>3.256943</ele>
        <time>2023-11-05T07:41:38.000Z</time>
      </trkpt>
      <trkpt lat="28.390228" lon="-80.741912">
        <ele>3.345135</ele>
        <time>2023-11-05T07:41:41.000Z</time>
      </trkpt>
      <trkpt lat="28.390889" lon="-80.742271">
        <ele>3.764065</ele>
        <time>2023-11-05T07:41:49.000Z</time>
      </trkpt>
      <trkpt lat="28.391209" lon="-80.74238">
        <ele>4.0031</ele>
        <time>2023-11-05T07:41:53.000Z</time>
      </trkpt>
      <trkpt lat="28.392547" lon="-80.742908">
        <ele>4.892775</ele>
        <time>2023-11-05T07:42:09.000Z</time>
      </trkpt>
      <trkpt lat="28.392746" lon="-80.74301">
        <ele>4.993047</ele>
        <time>2023-11-05T07:42:11.000Z</time>
      </trkpt>
      <trkpt lat="28.393413" lon="-80.743525">
        <ele>5.356739</ele>
        <time>2023-11-05T07:42:20.000Z</time>
      </trkpt>
      <trkpt lat="28.394082" lon="-80.744145">
        <ele>5.452895</ele>
        <time>2023-11-05T07:42:30.000Z</time>
      </trkpt>
      <trkpt lat="28.395035" lon="-80.744622">
        <ele>5.329709</ele>
        <time>2023-11-05T07:42:42.000Z</time>
      </trkpt>
      <trkpt lat="28.396157" lon="-80.745123">
        <ele>4.630595</ele>
        <time>2023-11-05T07:42:55.000Z</time>
      </trkpt>
      <trkpt lat="28.396832" lon="-80.745408">
        <ele>4.130269</ele>
        <time>2023-11-05T07:43:03.000Z</time>
      </trkpt>
      <trkpt lat="28.398242" lon="-80.746025">
        <ele>3.123236</ele>
        <time>2023-11-05T07:43:20.000Z</time>
      </trkpt>
      <trkpt lat="28.398882" lon="-80.746253">
        <ele>2.752004</ele>
        <time>2023-11-05T07:43:27.000Z</time>
      </trkpt>
      <trkpt lat="28.400052" lon="-80.746496">
        <ele>2.266014</ele>
        <time>2023-11-05T07:43:40.000Z</time>
      </trkpt>
      <trkpt lat="28.400661" lon="-80.746607">
        <ele>2.001594</ele>
        <time>2023-11-05T07:43:47.000Z</time>
      </trkpt>
      <trkpt lat="28.401695" lon="-80.746505">
        <ele>1.516699</ele>
        <time>2023-11-05T07:43:59.000Z</time>
      </trkpt>
      <trkpt lat="28.402154" lon="-80.746372">
        <ele>1.303945</ele>
        <time>2023-11-05T07:44:04.000Z</time>
      </trkpt>
      <trkpt lat="28.40251" lon="-80.746175">
        <ele>1.203622</ele>
        <time>2023-11-05T07:44:08.000Z</time>
      </trkpt>
      <trkpt lat="28.402783" lon="-80.745932">
        <ele>1.11904</ele>
        <time>2023-11-05T07:44:12.000Z</time>
      </trkpt>
      <trkpt lat="28.403138" lon="-80.745935">
        <ele>1.03146</ele>
        <time>2023-11-05T07:44:16.000Z</time>
      </trkpt>
      <trkpt lat="28.404653" lon="-80.746903">
        <ele>0.842199</ele>
        <time>2023-11-05T07:44:35.000Z</time>
      </trkpt>
      <trkpt lat="28.404897" lon="-80.747325">
        <ele>0.833772</ele>
        <time>2023-11-05T07:44:40.000Z</time>
      </trkpt>
      <trkpt lat="28.405131" lon="-80.747594">
        <ele>0.8284</ele>
        <time>2023-11-05T07:44:44.000Z</time>
      </trkpt>
      <trkpt lat="28.405865" lon="-80.747949">
        <ele>0.878658</ele>
        <time>2023-11-05T07:44:53.000Z</time>
      </trkpt>
      <trkpt lat="28.406022" lon="-80.747989">
        <ele>0.888803</ele>
        <time>2023-11-05T07:44:55.000Z</time>
      </trkpt>
      <trkpt lat="28.407184" lon="-80.748593">
        <ele>0.924116</ele>
        <time>2023-11-05T07:45:09.000Z</time>
      </trkpt>
      <trkpt lat="28.407393" lon="-80.74871">
        <ele>0.915015</ele>
        <time>2023-11-05T07:45:12.000Z</time>
      </trkpt>
      <trkpt lat="28.408281" lon="-80.749313">
        <ele>0.872976</ele>
        <time>2023-11-05T07:45:24.000Z</time>
      </trkpt>
      <trkpt lat="28.40914" lon="-80.749456">
        <ele>0.794758</ele>
        <time>2023-11-05T07:45:34.000Z</time>
      </trkpt>
      <trkpt lat="28.409286" lon="-80.749477">
        <ele>0.782405</ele>
        <time>2023-11-05T07:45:36.000Z</time>
      </trkpt>
      <trkpt lat="28.409585" lon="-80.749481">
        <ele>0.753929</ele>
        <time>2023-11-05T07:45:39.000Z</time>
      </trkpt>
      <trkpt lat="28.409863" lon="-80.749422">
        <ele>0.726307</ele>
        <time>2023-11-05T07:45:42.000Z</time>
      </trkpt>
      <trkpt lat="28.410282" lon="-80.749309">
        <ele>0.695942</ele>
        <time>2023-11-05T07:45:47.000Z</time>
      </trkpt>
      <trkpt lat="28.410819" lon="-80.74917">
        <ele>0.682393</ele>
        <time>2023-11-05T07:45:53.000Z</time>
      </trkpt>
      <trkpt lat="28.411481" lon="-80.749107">
        <ele>0.666369</ele>
        <time>2023-11-05T07:46:00.000Z</time>
      </trkpt>
      <trkpt lat="28.412366" lon="-80.749137">
        <ele>0.70953</ele>
        <time>2023-11-05T07:46:10.000Z</time>
      </trkpt>
      <trkpt lat="28.413202" lon="-80.749774">
        <ele>0.831664</ele>
        <time>2023-11-05T07:46:21.000Z</time>
      </trkpt>
      <trkpt lat="28.413395" lon="-80.749917">
        <ele>0.858791</ele>
        <time>2023-11-05T07:46:24.000Z</time>
      </trkpt>
      <trkpt lat="28.413504" lon="-80.749968">
        <ele>0.873622</ele>
        <time>2023-11-05T07:46:25.000Z</time>
      </trkpt>
      <trkpt lat="28.414209" lon="-80.750293">
        <ele>0.902327</ele>
        <time>2023-11-05T07:46:33.000Z</time>
      </trkpt>
      <trkpt lat="28.414785" lon="-80.750428">
        <ele>0.924579</ele>
        <time>2023-11-05T07:46:40.000Z</time>
      </trkpt>
      <trkpt lat="28.415618" lon="-80.750562">
        <ele>0.89852</ele>
        <time>2023-11-05T07:46:49.000Z</time>
      </trkpt>
      <trkpt lat="28.416608" lon="-80.75066">
        <ele>0.789599</ele>
        <time>2023-11-05T07:47:00.000Z</time>
      </trkpt>
      <trkpt lat="28.417367" lon="-80.75084">
        <ele>0.712811</ele>
        <time>2023-11-05T07:47:09.000Z</time>
      </trkpt>
      <trkpt lat="28.418046" lon="-80.751162">
        <ele>0.650176</ele>
        <time>2023-11-05T07:47:17.000Z</time>
      </trkpt>
      <trkpt lat="28.418955" lon="-80.751539">
        <ele>0.5828</ele>
        <time>2023-11-05T07:47:28.000Z</time>
      </trkpt>
      <trkpt lat="28.419771" lon="-80.751927">
        <ele>0.562225</ele>
        <time>2023-11-05T07:47:38.000Z</time>
      </trkpt>
      <trkpt lat="28.42118" lon="-80.752351">
        <ele>0.571049</ele>
        <time>2023-11-05T07:47:54.000Z</time>
      </trkpt>
      <trkpt lat="28.42173" lon="-80.752435">
        <ele>0.587455</ele>
        <time>2023-11-05T07:48:00.000Z</time>
      </trkpt>
      <trkpt lat="28.422256" lon="-80.752626">
        <ele>0.600391</ele>
        <time>2023-11-05T07:48:06.000Z</time>
      </trkpt>
      <trkpt lat="28.422484" lon="-80.752647">
        <ele>0.601066</ele>
        <time>2023-11-05T07:48:09.000Z</time>
      </trkpt>
      <trkpt lat="28.423453" lon="-80.752643">
        <ele>0.604012</ele>
        <time>2023-11-05T07:48:20.000Z</time>
      </trkpt>
      <trkpt lat="28.423871" lon="-80.752696">
        <ele>0.605264</ele>
        <time>2023-11-05T07:48:25.000Z</time>
      </trkpt>
      <trkpt lat="28.42427" lon="-80.753008">
        <ele>0.632516</ele>
        <time>2023-11-05T07:48:30.000Z</time>
      </trkpt>
      <trkpt lat="28.427376" lon="-80.754669">
        <ele>0.892995</ele>
        <time>2023-11-05T07:49:08.000Z</time>
      </trkpt>
      <trkpt lat="28.428532" lon="-80.755138">
        <ele>0.969252</ele>
        <time>2023-11-05T07:49:22.000Z</time>
      </trkpt>
      <trkpt lat="28.429456" lon="-80.755412">
        <ele>0.950037</ele>
        <time>2023-11-05T07:49:33.000Z</time>
      </trkpt>
      <trkpt lat="28.430064" lon="-80.755528">
        <ele>0.912493</ele>
        <time>2023-11-05T07:49:40.000Z</time>
      </trkpt>
      <trkpt lat="28.430177" lon="-80.755561">
        <ele>0.905998</ele>
        <time>2023-11-05T07:49:41.000Z</time>
      </trkpt>
      <trkpt lat="28.430496" lon="-80.755616">
        <ele>0.885887</ele>
        <time>2023-11-05T07:49:45.000Z</time>
      </trkpt>
      <trkpt lat="28.430535" lon="-80.755627">
        <ele>0.883272</ele>
        <time>2023-11-05T07:49:45.000Z</time>
      </trkpt>
      <trkpt lat="28.431488" lon="-80.755871">
        <ele>0.824897</ele>
        <time>2023-11-05T07:49:56.000Z</time>
      </trkpt>
      <trkpt lat="28.432293" lon="-80.756149">
        <ele>0.77464</ele>
        <time>2023-11-05T07:50:05.000Z</time>
      </trkpt>
      <trkpt lat="28.433146" lon="-80.756343">
        <ele>0.734689</ele>
        <time>2023-11-05T07:50:15.000Z</time>
      </trkpt>
      <trkpt lat="28.433579" lon="-80.756609">
        <ele>0.713076</ele>
        <time>2023-11-05T07:50:20.000Z</time>
      </trkpt>
      <trkpt lat="28.434143" lon="-80.756894">
        <ele>0.684261</ele>
        <time>2023-11-05T07:50:27.000Z</time>
      </trkpt>
      <trkpt lat="28.434333" lon="-80.75694">
        <ele>0.675157</ele>
        <time>2023-11-05T07:50:29.000Z</time>
      </trkpt>
      <trkpt lat="28.43537" lon="-80.757247">
        <ele>0.621139</ele>
        <time>2023-11-05T07:50:41.000Z</time>
      </trkpt>
      <trkpt lat="28.436308" lon="-80.75757">
        <ele>0.569769</ele>
        <time>2023-11-05T07:50:52.000Z</time>
      </trkpt>
      <trkpt lat="28.436852" lon="-80.757635">
        <ele>0.5391</ele>
        <time>2023-11-05T07:50:58.000Z</time>
      </trkpt>
      <trkpt lat="28.437084" lon="-80.757694">
        <ele>0.526154</ele>
        <time>2023-11-05T07:51:01.000Z</time>
      </trkpt>
      <trkpt lat="28.437553" lon="-80.757901">
        <ele>0.502716</ele>
        <time>2023-11-05T07:51:07.000Z</time>
      </trkpt>
      <trkpt lat="28.437987" lon="-80.758259">
        <ele>0.50188</ele>
        <time>2023-11-05T07:51:13.000Z</time>
      </trkpt>
      <trkpt lat="28.438856" lon="-80.758399">
        <ele>0.500504</ele>
        <time>2023-11-05T07:51:23.000Z</time>
      </trkpt>
      <trkpt lat="28.43798" lon="-80.758248">
        <ele>0.510286</ele>
        <time>2023-11-05T07:51:33.000Z</time>
      </trkpt>
      <trkpt lat="28.437547" lon="-80.757912">
        <ele>0.519905</ele>
        <time>2023-11-05T07:51:39.000Z</time>
      </trkpt>
      <trkpt lat="28.437086" lon="-80.757692">
        <ele>0.529005</ele>
        <time>2023-11-05T07:51:45.000Z</time>
      </trkpt>
      <trkpt lat="28.436858" lon="-80.757633">
        <ele>0.53448</ele>
        <time>2023-11-05T07:51:48.000Z</time>
      </trkpt>
      <trkpt lat="28.436299" lon="-80.757571">
        <ele>0.565693</ele>
        <time>2023-11-05T07:51:54.000Z</time>
      </trkpt>
      <trkpt lat="28.435378" lon="-80.75724">
        <ele>0.619943</ele>
        <time>2023-11-05T07:52:05.000Z</time>
      </trkpt>
      <trkpt lat="28.434326" lon="-80.756938">
        <ele>0.669161</ele>
        <time>2023-11-05T07:52:17.000Z</time>
      </trkpt>
      <trkpt lat="28.434149" lon="-80.756907">
        <ele>0.676905</ele>
        <time>2023-11-05T07:52:19.000Z</time>
      </trkpt>
      <trkpt lat="28.433576" lon="-80.7566">
        <ele>0.703709</ele>
        <time>2023-11-05T07:52:26.000Z</time>
      </trkpt>
      <trkpt lat="28.433154" lon="-80.756354">
        <ele>0.728466</ele>
        <time>2023-11-05T07:52:31.000Z</time>
      </trkpt>
      <trkpt lat="28.43229" lon="-80.756158">
        <ele>0.776684</ele>
        <time>2023-11-05T07:52:41.000Z</time>
      </trkpt>
      <trkpt lat="28.431493" lon="-80.755871">
        <ele>0.82661</ele>
        <time>2023-11-05T07:52:50.000Z</time>
      </trkpt>
      <trkpt lat="28.430532" lon="-80.755639">
        <ele>0.894865</ele>
        <time>2023-11-05T07:53:01.000Z</time>
      </trkpt>
      <trkpt lat="28.430504" lon="-80.755629">
        <ele>0.897865</ele>
        <time>2023-11-05T07:53:01.000Z</time>
      </trkpt>
      <trkpt lat="28.430178" lon="-80.755553">
        <ele>0.921006</ele>
        <time>2023-11-05T07:53:05.000Z</time>
      </trkpt>
      <trkpt lat="28.430076" lon="-80.755527">
        <ele>0.928469</ele>
        <time>2023-11-05T07:53:06.000Z</time>
      </trkpt>
      <trkpt lat="28.429459" lon="-80.755405">
        <ele>0.944124</ele>
        <time>2023-11-05T07:53:13.000Z</time>
      </trkpt>
      <trkpt lat="28.42852" lon="-80.755138">
        <ele>0.961168</ele>
        <time>2023-11-05T07:53:24.000Z</time>
      </trkpt>
      <trkpt lat="28.42738" lon="-80.754677">
        <ele>0.893823</ele>
        <time>2023-11-05T07:53:37.000Z</time>
      </trkpt>
      <trkpt lat="28.42427" lon="-80.752995">
        <ele>0.638423</ele>
        <time>2023-11-05T07:54:15.000Z</time>
      </trkpt>
      <trkpt lat="28.423877" lon="-80.752709">
        <ele>0.620754</ele>
        <time>2023-11-05T07:54:20.000Z</time>
      </trkpt>
      <trkpt lat="28.423462" lon="-80.752645">
        <ele>0.60552</ele>
        <time>2023-11-05T07:54:25.000Z</time>
      </trkpt>
      <trkpt lat="28.422482" lon="-80.752632">
        <ele>0.597466</ele>
        <time>2023-11-05T07:54:36.000Z</time>
      </trkpt>
      <trkpt lat="28.422262" lon="-80.752621">
        <ele>0.596786</ele>
        <time>2023-11-05T07:54:38.000Z</time>
      </trkpt>
      <trkpt lat="28.421729" lon="-80.75244">
        <ele>0.59505</ele>
        <time>2023-11-05T07:54:44.000Z</time>
      </trkpt>
      <trkpt lat="28.421181" lon="-80.75235">
        <ele>0.583641</ele>
        <time>2023-11-05T07:54:50.000Z</time>
      </trkpt>
      <trkpt lat="28.419764" lon="-80.751935">
        <ele>0.541155</ele>
        <time>2023-11-05T07:55:06.000Z</time>
      </trkpt>
      <trkpt lat="28.418959" lon="-80.751536">
        <ele>0.583113</ele>
        <time>2023-11-05T07:55:16.000Z</time>
      </trkpt>
      <trkpt lat="28.418046" lon="-80.751161">
        <ele>0.634157</ele>
        <time>2023-11-05T07:55:27.000Z</time>
      </trkpt>
      <trkpt lat="28.41737" lon="-80.750837">
        <ele>0.711747</ele>
        <time>2023-11-05T07:55:35.000Z</time>
      </trkpt>
      <trkpt lat="28.416607" lon="-80.750672">
        <ele>0.795045</ele>
        <time>2023-11-05T07:55:44.000Z</time>
      </trkpt>
      <trkpt lat="28.41562" lon="-80.750551">
        <ele>0.885707</ele>
        <time>2023-11-05T07:55:55.000Z</time>
      </trkpt>
      <trkpt lat="28.414785" lon="-80.750428">
        <ele>0.958051</ele>
        <time>2023-11-05T07:56:04.000Z</time>
      </trkpt>
      <trkpt lat="28.414204" lon="-80.750297">
        <ele>0.930897</ele>
        <time>2023-11-05T07:56:11.000Z</time>
      </trkpt>
      <trkpt lat="28.413505" lon="-80.74998">
        <ele>0.84964</ele>
        <time>2023-11-05T07:56:19.000Z</time>
      </trkpt>
      <trkpt lat="28.413386" lon="-80.749914">
        <ele>0.836365</ele>
        <time>2023-11-05T07:56:20.000Z</time>
      </trkpt>
      <trkpt lat="28.413194" lon="-80.749789">
        <ele>0.8125</ele>
        <time>2023-11-05T07:56:22.000Z</time>
      </trkpt>
      <trkpt lat="28.412359" lon="-80.749135">
        <ele>0.718893</ele>
        <time>2023-11-05T07:56:33.000Z</time>
      </trkpt>
      <trkpt lat="28.411488" lon="-80.749101">
        <ele>0.64133</ele>
        <time>2023-11-05T07:56:43.000Z</time>
      </trkpt>
      <trkpt lat="28.410817" lon="-80.749175">
        <ele>0.662796</ele>
        <time>2023-11-05T07:56:50.000Z</time>
      </trkpt>
      <trkpt lat="28.410275" lon="-80.749312">
        <ele>0.707419</ele>
        <time>2023-11-05T07:56:56.000Z</time>
      </trkpt>
      <trkpt lat="28.409863" lon="-80.749421">
        <ele>0.741353</ele>
        <time>2023-11-05T07:57:01.000Z</time>
      </trkpt>
      <trkpt lat="28.409578" lon="-80.749488">
        <ele>0.764651</ele>
        <time>2023-11-05T07:57:04.000Z</time>
      </trkpt>
      <trkpt lat="28.40927" lon="-80.74946">
        <ele>0.7885</ele>
        <time>2023-11-05T07:57:07.000Z</time>
      </trkpt>
      <trkpt lat="28.409148" lon="-80.749461">
        <ele>0.798805</ele>
        <time>2023-11-05T07:57:08.000Z</time>
      </trkpt>
      <trkpt lat="28.408294" lon="-80.74932">
        <ele>0.86771</ele>
        <time>2023-11-05T07:57:18.000Z</time>
      </trkpt>
      <trkpt lat="28.407396" lon="-80.748709">
        <ele>0.912842</ele>
        <time>2023-11-05T07:57:30.000Z</time>
      </trkpt>
      <trkpt lat="28.407183" lon="-80.748597">
        <ele>0.913482</ele>
        <time>2023-11-05T07:57:33.000Z</time>
      </trkpt>
      <trkpt lat="28.40602" lon="-80.747978">
        <ele>0.90453</ele>
        <time>2023-11-05T07:57:47.000Z</time>
      </trkpt>
      <trkpt lat="28.40587" lon="-80.74796">
        <ele>0.895231</ele>
        <time>2023-11-05T07:57:49.000Z</time>
      </trkpt>
      <trkpt lat="28.405146" lon="-80.747606">
        <ele>0.849122</ele>
        <time>2023-11-05T07:57:58.000Z</time>
      </trkpt>
      <trkpt lat="28.404907" lon="-80.747314">
        <ele>0.829308</ele>
        <time>2023-11-05T07:58:02.000Z</time>
      </trkpt>
      <trkpt lat="28.40465" lon="-80.74692">
        <ele>0.82133</ele>
        <time>2023-11-05T07:58:07.000Z</time>
      </trkpt>
      <trkpt lat="28.403133" lon="-80.74594">
        <ele>0.964402</ele>
        <time>2023-11-05T07:58:26.000Z</time>
      </trkpt>
      <trkpt lat="28.402783" lon="-80.745933">
        <ele>1.093566</ele>
        <time>2023-11-05T07:58:30.000Z</time>
      </trkpt>
      <trkpt lat="28.402499" lon="-80.746174">
        <ele>1.218297</ele>
        <time>2023-11-05T07:58:34.000Z</time>
      </trkpt>
      <trkpt lat="28.402145" lon="-80.746367">
        <ele>1.361311</ele>
        <time>2023-11-05T07:58:38.000Z</time>
      </trkpt>
      <trkpt lat="28.401696" lon="-80.746511">
        <ele>1.524416</ele>
        <time>2023-11-05T07:58:43.000Z</time>
      </trkpt>
      <trkpt lat="28.400665" lon="-80.746617">
        <ele>1.992748</ele>
        <time>2023-11-05T07:58:55.000Z</time>
      </trkpt>
      <trkpt lat="28.400059" lon="-80.746502">
        <ele>2.277476</ele>
        <time>2023-11-05T07:59:02.000Z</time>
      </trkpt>
      <trkpt lat="28.398872" lon="-80.746247">
        <ele>2.80293</ele>
        <time>2023-11-05T07:59:15.000Z</time>
      </trkpt>
      <trkpt lat="28.398251" lon="-80.746026">
        <ele>3.087418</ele>
        <time>2023-11-05T07:59:22.000Z</time>
      </trkpt>
      <trkpt lat="28.396828" lon="-80.745406">
        <ele>4.132112</ele>
        <time>2023-11-05T07:59:39.000Z</time>
      </trkpt>
      <trkpt lat="28.396146" lon="-80.745117">
        <ele>4.628012</ele>
        <time>2023-11-05T07:59:47.000Z</time>
      </trkpt>
      <trkpt lat="28.395027" lon="-80.744632">
        <ele>5.313393</ele>
        <time>2023-11-05T08:00:00.000Z</time>
      </trkpt>
      <trkpt lat="28.394085" lon="-80.744134">
        <ele>5.4689</ele>
        <time>2023-11-05T08:00:12.000Z</time>
      </trkpt>
      <trkpt lat="28.393413" lon="-80.743522">
        <ele>5.376712</ele>
        <time>2023-11-05T08:00:22.000Z</time>
      </trkpt>
      <trkpt lat="28.392741" lon="-80.743025">
        <ele>5.026959</ele>
        <time>2023-11-05T08:00:31.000Z</time>
      </trkpt>
      <trkpt lat="28.392546" lon="-80.742908">
        <ele>4.890501</ele>
        <time>2023-11-05T08:00:33.000Z</time>
      </trkpt>
      <trkpt lat="28.391218" lon="-80.742375">
        <ele>4.014572</ele>
        <time>2023-11-05T08:00:49.000Z</time>
      </trkpt>
      <trkpt lat="28.390895" lon="-80.742279">
        <ele>3.801627</ele>
        <time>2023-11-05T08:00:53.000Z</time>
      </trkpt>
      <trkpt lat="28.390224" lon="-80.7419">
        <ele>3.335215</ele>
        <time>2023-11-05T08:01:01.000Z</time>
      </trkpt>
      <trkpt lat="28.389944" lon="-80.741852">
        <ele>3.149137</ele>
        <time>2023-11-05T08:01:04.000Z</time>
      </trkpt>
      <trkpt lat="28.389062" lon="-80.741885">
        <ele>3.023513</ele>
        <time>2023-11-05T08:01:14.000Z</time>
      </trkpt>
      <trkpt lat="28.387522" lon="-80.741438">
        <ele>2.949587</ele>
        <time>2023-11-05T08:01:32.000Z</time>
      </trkpt>
      <trkpt lat="28.386827" lon="-80.741112">
        <ele>2.978761</ele>
        <time>2023-11-05T08:01:40.000Z</time>
      </trkpt>
      <trkpt lat="28.385387" lon="-80.740295">
        <ele>2.657007</ele>
        <time>2023-11-05T08:01:58.000Z</time>
      </trkpt>
      <trkpt lat="28.384661" lon="-80.739819">
        <ele>2.356691</ele>
        <time>2023-11-05T08:02:07.000Z</time>
      </trkpt>
      <trkpt lat="28.384337" lon="-80.739195">
        <ele>2.012347</ele>
        <time>2023-11-05T08:02:14.000Z</time>
      </trkpt>
      <trkpt lat="28.383636" lon="-80.738273">
        <ele>1.443108</ele>
        <time>2023-11-05T08:02:26.000Z</time>
      </trkpt>
      <trkpt lat="28.383381" lon="-80.737646">
        <ele>1.265535</ele>
        <time>2023-11-05T08:02:33.000Z</time>
      </trkpt>
      <trkpt lat="28.383187" lon="-80.737439">
        <ele>1.189087</ele>
        <time>2023-11-05T08:02:36.000Z</time>
      </trkpt>
      <trkpt lat="28.382452" lon="-80.736962">
        <ele>0.944878</ele>
        <time>2023-11-05T08:02:45.000Z</time>
      </trkpt>
      <trkpt lat="28.381872" lon="-80.736771">
        <ele>0.827938</ele>
        <time>2023-11-05T08:02:52.000Z</time>
      </trkpt>
      <trkpt lat="28.381209" lon="-80.736368">
        <ele>0.678913</ele>
        <time>2023-11-05T08:03:00.000Z</time>
      </trkpt>
      <trkpt lat="28.379972" lon="-80.735201">
        <ele>0.436041</ele>
        <time>2023-11-05T08:03:18.000Z</time>
      </trkpt>
      <trkpt lat="28.379728" lon="-80.735166">
        <ele>0.40275</ele>
        <time>2023-11-05T08:03:21.000Z</time>
      </trkpt>
      <trkpt lat="28.37919" lon="-80.735478">
        <ele>0.447874</ele>
        <time>2023-11-05T08:03:28.000Z</time>
      </trkpt>
      <trkpt lat="28.379009" lon="-80.735602">
        <ele>0.528171</ele>
        <time>2023-11-05T08:03:30.000Z</time>
      </trkpt>
      <trkpt lat="28.378954" lon="-80.735642">
        <ele>0.5589</ele>
        <time>2023-11-05T08:03:31.000Z</time>
      </trkpt>
      <trkpt lat="28.378309" lon="-80.735931">
        <ele>0.828086</ele>
        <time>2023-11-05T08:03:39.000Z</time>
      </trkpt>
      <trkpt lat="28.378191" lon="-80.735967">
        <ele>0.873985</ele>
        <time>2023-11-05T08:03:40.000Z</time>
      </trkpt>
      <trkpt lat="28.377732" lon="-80.736108">
        <ele>1.060247</ele>
        <time>2023-11-05T08:03:45.000Z</time>
      </trkpt>
      <trkpt lat="28.377337" lon="-80.736218">
        <ele>1.223611</ele>
        <time>2023-11-05T08:03:50.000Z</time>
      </trkpt>
      <trkpt lat="28.377204" lon="-80.736264">
        <ele>1.279686</ele>
        <time>2023-11-05T08:03:52.000Z</time>
      </trkpt>
      <trkpt lat="28.376828" lon="-80.736324">
        <ele>1.441542</ele>
        <time>2023-11-05T08:03:56.000Z</time>
      </trkpt>
      <trkpt lat="28.376555" lon="-80.736223">
        <ele>1.556849</ele>
        <time>2023-11-05T08:03:59.000Z</time>
      </trkpt>
      <trkpt lat="28.376315" lon="-80.736114">
        <ele>1.664228</ele>
        <time>2023-11-05T08:04:02.000Z</time>
      </trkpt>
      <trkpt lat="28.374929" lon="-80.735439">
        <ele>1.862039</ele>
        <time>2023-11-05T08:04:19.000Z</time>
      </trkpt>
      <trkpt lat="28.37345" lon="-80.734691">
        <ele>1.877137</ele>
        <time>2023-11-05T08:04:37.000Z</time>
      </trkpt>
      <trkpt lat="28.372074" lon="-80.734025">
        <ele>2.644039</ele>
        <time>2023-11-05T08:04:54.000Z</time>
      </trkpt>
      <trkpt lat="28.371413" lon="-80.733812">
        <ele>3.409718</ele>
        <time>2023-11-05T08:05:02.000Z</time>
      </trkpt>
      <trkpt lat="28.371145" lon="-80.733732">
        <ele>3.713931</ele>
        <time>2023-11-05T08:05:05.000Z</time>
      </trkpt>
      <trkpt lat="28.370938" lon="-80.733663">
        <ele>4.023444</ele>
        <time>2023-11-05T08:05:07.000Z</time>
      </trkpt>
      <trkpt lat="28.370472" lon="-80.733576">
        <ele>4.899826</ele>
        <time>2023-11-05T08:05:12.000Z</time>
      </trkpt>
      <trkpt lat="28.369796" lon="-80.733412">
        <ele>6.196146</ele>
        <time>2023-11-05T08:05:20.000Z</time>
      </trkpt>
      <trkpt lat="28.368701" lon="-80.732903">
        <ele>6.490817</ele>
        <time>2023-11-05T08:05:33.000Z</time>
      </trkpt>
      <trkpt lat="28.368178" lon="-80.732754">
        <ele>5.88254</ele>
        <time>2023-11-05T08:05:39.000Z</time>
      </trkpt>
      <trkpt lat="28.367934" lon="-80.732673">
        <ele>5.596023</ele>
        <time>2023-11-05T08:05:42.000Z</time>
      </trkpt>
      <trkpt lat="28.367143" lon="-80.732228">
        <ele>4.365021</ele>
        <time>2023-11-05T08:05:52.000Z</time>
      </trkpt>
      <trkpt lat="28.366305" lon="-80.731903">
        <ele>2.967112</ele>
        <time>2023-11-05T08:06:02.000Z</time>
      </trkpt>
      <trkpt lat="28.365748" lon="-80.731677">
        <ele>2.295146</ele>
        <time>2023-11-05T08:06:09.000Z</time>
      </trkpt>
      <trkpt lat="28.365436" lon="-80.731517">
        <ele>2.204324</ele>
        <time>2023-11-05T08:06:13.000Z</time>
      </trkpt>
      <trkpt lat="28.364611" lon="-80.731111">
        <ele>1.965915</ele>
        <time>2023-11-05T08:06:23.000Z</time>
      </trkpt>
      <trkpt lat="28.364055" lon="-80.730871">
        <ele>1.828106</ele>
        <time>2023-11-05T08:06:30.000Z</time>
      </trkpt>
      <trkpt lat="28.363481" lon="-80.730612">
        <ele>1.71133</ele>
        <time>2023-11-05T08:06:37.000Z</time>
      </trkpt>
      <trkpt lat="28.362493" lon="-80.730031">
        <ele>1.542433</ele>
        <time>2023-11-05T08:06:49.000Z</time>
      </trkpt>
      <trkpt lat="28.361776" lon="-80.729548">
        <ele>1.561437</ele>
        <time>2023-11-05T08:06:58.000Z</time>
      </trkpt>
      <trkpt lat="28.361061" lon="-80.729161">
        <ele>1.579632</ele>
        <time>2023-11-05T08:07:07.000Z</time>
      </trkpt>
      <trkpt lat="28.359223" lon="-80.728134">
        <ele>3.044072</ele>
        <time>2023-11-05T08:07:30.000Z</time>
      </trkpt>
      <trkpt lat="28.359228" lon="-80.728191">
        <ele>3.079798</ele>
        <time>2023-11-05T08:07:31.000Z</time>
      </trkpt>
      <trkpt lat="28.359227" lon="-80.728594">
        <ele>3.324135</ele>
        <time>2023-11-05T08:07:35.000Z</time>
      </trkpt>
      <trkpt lat="28.359223" lon="-80.72889">
        <ele>3.511485</ele>
        <time>2023-11-05T08:07:38.000Z</time>
      </trkpt>
      <trkpt lat="28.359281" lon="-80.728893">
        <ele>3.548548</ele>
        <time>2023-11-05T08:07:39.000Z</time>
      </trkpt>
      <trkpt lat="28.359466" lon="-80.728926">
        <ele>3.686806</ele>
        <time>2023-11-05T08:07:41.000Z</time>
      </trkpt>
      <trkpt lat="28.359576" lon="-80.729019">
        <ele>3.782907</ele>
        <time>2023-11-05T08:07:43.000Z</time>
      </trkpt>
      <trkpt lat="28.359562" lon="-80.729124">
        <ele>3.853714</ele>
        <time>2023-11-05T08:07:44.000Z</time>
      </trkpt>
      <trkpt lat="28.359568" lon="-80.729622">
        <ele>4.147347</ele>
        <time>2023-11-05T08:07:49.000Z</time>
      </trkpt>
      <trkpt lat="28.359438" lon="-80.729608">
        <ele>4.065333</ele>
        <time>2023-11-05T08:07:50.000Z</time>
      </trkpt>
      <trkpt lat="28.359357" lon="-80.729617">
        <ele>4.009069</ele>
        <time>2023-11-05T08:07:51.000Z</time>
      </trkpt>
      <trkpt lat="28.359275" lon="-80.729615">
        <ele>3.94672</ele>
        <time>2023-11-05T08:07:52.000Z</time>
      </trkpt>
      <trkpt lat="28.359211" lon="-80.729616">
        <ele>3.91217</ele>
        <time>2023-11-05T08:07:53.000Z</time>
      </trkpt>
      <trkpt lat="28.359218" lon="-80.729461">
        <ele>3.826277</ele>
        <time>2023-11-05T08:07:55.000Z</time>
      </trkpt>
      <trkpt lat="28.359212" lon="-80.729063">
        <ele>3.584168</ele>
        <time>2023-11-05T08:07:59.000Z</time>
      </trkpt>
      <trkpt lat="28.359217" lon="-80.72888">
        <ele>3.479804</ele>
        <time>2023-11-05T08:08:01.000Z</time>
      </trkpt>
      <trkpt lat="28.359227" lon="-80.728591">
        <ele>3.301488</ele>
        <time>2023-11-05T08:08:04.000Z</time>
      </trkpt>
      <trkpt lat="28.359226" lon="-80.728193">
        <ele>3.068911</ele>
        <time>2023-11-05T08:08:08.000Z</time>
      </trkpt>
      <trkpt lat="28.359226" lon="-80.728133">
        <ele>3.034927</ele>
        <time>2023-11-05T08:08:09.000Z</time>
      </trkpt>
      <trkpt lat="28.358944" lon="-80.727906">
        <ele>2.808041</ele>
        <time>2023-11-05T08:08:13.000Z</time>
      </trkpt>
      <trkpt lat="28.35874" lon="-80.727573">
        <ele>2.587764</ele>
        <time>2023-11-05T08:08:17.000Z</time>
      </trkpt>
      <trkpt lat="28.358449" lon="-80.727363">
        <ele>2.366833</ele>
        <time>2023-11-05T08:08:21.000Z</time>
      </trkpt>
      <trkpt lat="28.357755" lon="-80.727004">
        <ele>1.870058</ele>
        <time>2023-11-05T08:08:29.000Z</time>
      </trkpt>
      <trkpt lat="28.357554" lon="-80.726856">
        <ele>1.815605</ele>
        <time>2023-11-05T08:08:32.000Z</time>
      </trkpt>
      <trkpt lat="28.357409" lon="-80.726702">
        <ele>1.866963</ele>
        <time>2023-11-05T08:08:34.000Z</time>
      </trkpt>
      <trkpt lat="28.357076" lon="-80.726373">
        <ele>1.983753</ele>
        <time>2023-11-05T08:08:39.000Z</time>
      </trkpt>
      <trkpt lat="28.356914" lon="-80.726253">
        <ele>2.034129</ele>
        <time>2023-11-05T08:08:41.000Z</time>
      </trkpt>
      <trkpt lat="28.356507" lon="-80.726248">
        <ele>2.138916</ele>
        <time>2023-11-05T08:08:46.000Z</time>
      </trkpt>
      <trkpt lat="28.356462" lon="-80.726247">
        <ele>2.152837</ele>
        <time>2023-11-05T08:08:47.000Z</time>
      </trkpt>
      <trkpt lat="28.356372" lon="-80.726247">
        <ele>2.173843</ele>
        <time>2023-11-05T08:08:48.000Z</time>
      </trkpt>
      <trkpt lat="28.356205" lon="-80.726247">
        <ele>2.220833</ele>
        <time>2023-11-05T08:08:50.000Z</time>
      </trkpt>
      <trkpt lat="28.355936" lon="-80.72624">
        <ele>2.27402281054</ele>
        <time>2023-11-05T08:08:53.000Z</time>
      </trkpt>
      <trkpt lat="28.355871" lon="-80.726233">
        <ele>2.28692957183</ele>
        <time>2023-11-05T08:08:54.000Z</time>
      </trkpt>
      <trkpt lat="28.355798" lon="-80.72623">
        <ele>2.30136963198</ele>
        <time>2023-11-05T08:08:55.000Z</time>
      </trkpt>
      <trkpt lat="28.355312" lon="-80.726242">
        <ele>2.39746469783</ele>
        <time>2023-11-05T08:09:00.000Z</time>
      </trkpt>
      <trkpt lat="28.354945" lon="-80.726236">
        <ele>2.47002069697</ele>
        <time>2023-11-05T08:09:04.000Z</time>
      </trkpt>
      <trkpt lat="28.354966" lon="-80.725531">
        <ele>2.59273458633</ele>
        <time>2023-11-05T08:09:11.000Z</time>
      </trkpt>
      <trkpt lat="28.354909" lon="-80.724722">
        <ele>2.73392072136</ele>
        <time>2023-11-05T08:09:19.000Z</time>
      </trkpt>
    </trkseg>
  </trk>
</gpx>

<!--
Performance optimized by W3 Total Cache. Learn more: https://www.boldgrid.com/w3-total-cache/?utm_source=w3tc&utm_medium=footer_comment&utm_campaign=free_plugin

Page Caching using Disk: Enhanced{w3tc_pagecache_reject_reason} 

Served from: www.aquabike.world @ 2026-05-10 23:14:27 by W3 Total Cache
-->